Torre De Bel M — CSIO — position and weather

sailwx.info

Track history (hours):
 
Tides and Currents Weather Stations Pressure Air Temp Water Temp Dewpoint Dewpoint Depression Visibility Wind Speed Wind Dir Waves Ship Positions

Torre De Bel M

Last reported at 2015-Jan-27 00:33 UTC. Time now 2015-Jan-27 01:11 UTC.
Position N 38°42' W 009°25'.

Length 13 m; draft 1.1 m.

Type: Pilot. MMSI: 263671850.

Date/timePositionNaut miles runAvg speedWind from/ knotsBaromVisibWave heightAir tempDewpointWater temp
2015-Jan-27 00:33N 38°42' W 009°25'  
2015-Jan-24 15:33N 38°42' W 009°25'0 0.0
2015-Jan-24 14:33N 38°42' W 009°25'0 0.0
2015-Jan-24 13:31N 38°42' W 009°25'0 0.0
2015-Jan-24 12:32N 38°42' W 009°25'0 0.0
2015-Jan-24 11:32N 38°42' W 009°25'0 0.0
2015-Jan-24 10:33N 38°42' W 009°25'3 1.1
2015-Jan-24 07:33N 38°39' W 009°24'3 0.6
2015-Jan-24 02:06N 38°42' W 009°25'4 7.5
2015-Jan-24 01:32N 38°38' W 009°22'3 0.3
2015-Jan-23 15:33N 38°41' W 009°24'1 0.2
2015-Jan-23 11:25N 38°42' W 009°25'1 0.0
2015-Jan-22 08:33N 38°41' W 009°25'1 0.0
2015-Jan-21 08:05N 38°42' W 009°25'1 2.1
2015-Jan-21 07:33N 38°41' W 009°24'1 1.1
2015-Jan-21 06:33N 38°42' W 009°25'0 0.0
2015-Jan-21 05:31N 38°42' W 009°25'0 0.0
2015-Jan-21 04:33N 38°42' W 009°25'0 0.0
2015-Jan-21 03:33N 38°42' W 009°25'0 0.0
2015-Jan-21 02:34N 38°42' W 009°25'0 0.0
2015-Jan-21 01:34N 38°42' W 009°25'0 0.0
2015-Jan-21 00:34N 38°42' W 009°25'0 0.0
2015-Jan-20 23:33N 38°42' W 009°25'0 0.0
2015-Jan-20 22:33N 38°42' W 009°25'0 0.0
2015-Jan-20 21:33N 38°42' W 009°25'0 0.0
2015-Jan-20 20:28N 38°42' W 009°25'0 0.0
2015-Jan-20 19:33N 38°42' W 009°25'0 0.0
2015-Jan-20 18:33N 38°42' W 009°25'0 0.0
2015-Jan-20 17:33N 38°42' W 009°25'0 0.0
2015-Jan-20 16:34N 38°42' W 009°25'0 0.0
2015-Jan-20 15:31N 38°42' W 009°25'0 0.0
2015-Jan-20 14:33N 38°42' W 009°25'0 0.0
2015-Jan-20 13:32N 38°42' W 009°25'0 0.0
2015-Jan-20 12:34N 38°42' W 009°25'0 0.0
2015-Jan-20 11:33N 38°42' W 009°25'0 0.1
2015-Jan-20 10:33N 38°42' W 009°25'0 0.0
2015-Jan-20 03:16N 38°42' W 009°25'0 0.0
2015-Jan-20 02:32N 38°42' W 009°25'0 0.0
2015-Jan-18 22:04N 38°42' W 009°25'0 0.3
2015-Jan-18 21:33N 38°42' W 009°25'0 0.0
2015-Jan-17 10:03N 38°42' W 009°25'611.4
2015-Jan-17 09:33N 38°41' W 009°18'  
Track history (hours):
 
Tides and Currents Weather Stations Pressure Air Temp Water Temp Dewpoint Dewpoint Depression Visibility Wind Speed Wind Dir Waves Ship Positions

Torre De Bel M

Last reported at 2015-Jan-27 00:33 UTC. Time now 2015-Jan-27 01:11 UTC.
Position N 38°42' W 009°25'.

Length 13 m; draft 1.1 m.

Type: Pilot. MMSI: 263671850.

Date/timePositionNaut miles runAvg speedWind from/ knotsBaromVisibWave heightAir tempDewpointWater temp
2015-Jan-27 00:33N 38°42' W 009°25'  
2015-Jan-24 15:33N 38°42' W 009°25'0 0.0
2015-Jan-24 14:33N 38°42' W 009°25'0 0.0
2015-Jan-24 13:31N 38°42' W 009°25'0 0.0
2015-Jan-24 12:32N 38°42' W 009°25'0 0.0
2015-Jan-24 11:32N 38°42' W 009°25'0 0.0
2015-Jan-24 10:33N 38°42' W 009°25'3 1.1
2015-Jan-24 07:33N 38°39' W 009°24'3 0.6
2015-Jan-24 02:06N 38°42' W 009°25'4 7.5
2015-Jan-24 01:32N 38°38' W 009°22'3 0.3
2015-Jan-23 15:33N 38°41' W 009°24'1 0.2
2015-Jan-23 11:25N 38°42' W 009°25'1 0.0
2015-Jan-22 08:33N 38°41' W 009°25'1 0.0
2015-Jan-21 08:05N 38°42' W 009°25'1 2.1
2015-Jan-21 07:33N 38°41' W 009°24'1 1.1
2015-Jan-21 06:33N 38°42' W 009°25'0 0.0
2015-Jan-21 05:31N 38°42' W 009°25'0 0.0
2015-Jan-21 04:33N 38°42' W 009°25'0 0.0
2015-Jan-21 03:33N 38°42' W 009°25'0 0.0
2015-Jan-21 02:34N 38°42' W 009°25'0 0.0
2015-Jan-21 01:34N 38°42' W 009°25'0 0.0
2015-Jan-21 00:34N 38°42' W 009°25'0 0.0
2015-Jan-20 23:33N 38°42' W 009°25'0 0.0
2015-Jan-20 22:33N 38°42' W 009°25'0 0.0
2015-Jan-20 21:33N 38°42' W 009°25'0 0.0
2015-Jan-20 20:28N 38°42' W 009°25'0 0.0
2015-Jan-20 19:33N 38°42' W 009°25'0 0.0
2015-Jan-20 18:33N 38°42' W 009°25'0 0.0
2015-Jan-20 17:33N 38°42' W 009°25'0 0.0
2015-Jan-20 16:34N 38°42' W 009°25'0 0.0
2015-Jan-20 15:31N 38°42' W 009°25'0 0.0
2015-Jan-20 14:33N 38°42' W 009°25'0 0.0
2015-Jan-20 13:32N 38°42' W 009°25'0 0.0
2015-Jan-20 12:34N 38°42' W 009°25'0 0.0
2015-Jan-20 11:33N 38°42' W 009°25'0 0.1
2015-Jan-20 10:33N 38°42' W 009°25'0 0.0
2015-Jan-20 03:16N 38°42' W 009°25'0 0.0
2015-Jan-20 02:32N 38°42' W 009°25'0 0.0
2015-Jan-18 22:04N 38°42' W 009°25'0 0.3
2015-Jan-18 21:33N 38°42' W 009°25'0 0.0
2015-Jan-17 10:03N 38°42' W 009°25'611.4
2015-Jan-17 09:33N 38°41' W 009°18'  

Dump ship's entire track history